createdAt,value
2018-11-02T00:02:12.612Z,9.33
2018-11-02T00:04:40.621Z,9.31
2018-11-02T00:07:08.625Z,9.37
2018-11-02T00:09:36.749Z,9.31
2018-11-02T00:12:05.035Z,9.33
2018-11-02T00:14:32.987Z,9.12
2018-11-02T00:17:01.041Z,8.94
2018-11-02T00:19:31.452Z,8.90
2018-11-02T00:22:00.544Z,9.00
2018-11-02T00:24:28.914Z,8.81
2018-11-02T00:26:57.453Z,8.79
2018-11-02T00:29:25.462Z,8.79
2018-11-02T00:31:53.580Z,8.97
2018-11-02T00:34:21.518Z,8.96
2018-11-02T00:36:49.553Z,8.99
2018-11-02T00:39:17.607Z,8.88
2018-11-02T00:41:45.610Z,8.90
2018-11-02T00:44:13.613Z,8.99
2018-11-02T00:46:41.633Z,9.03
2018-11-02T00:49:09.683Z,9.02
2018-11-02T00:51:38.232Z,9.07
2018-11-02T00:54:06.621Z,8.90
2018-11-02T00:56:34.696Z,8.95
2018-11-02T00:59:02.701Z,9.08
2018-11-02T01:01:30.754Z,9.26
2018-11-02T01:03:58.723Z,9.37
2018-11-02T01:06:26.704Z,9.33
2018-11-02T01:08:54.753Z,9.24
2018-11-02T01:11:22.755Z,9.42
2018-11-02T01:13:50.773Z,9.38
2018-11-02T01:16:18.790Z,9.40
2018-11-02T01:18:46.793Z,9.42
2018-11-02T01:21:14.801Z,9.76
2018-11-02T01:23:42.838Z,9.88
2018-11-02T01:26:10.889Z,9.75
2018-11-02T01:28:38.897Z,9.94
2018-11-02T01:31:06.955Z,9.97
2018-11-02T01:33:36.985Z,10.03
2018-11-02T01:36:05.666Z,10.11
2018-11-02T01:38:33.685Z,10.08
2018-11-02T01:41:01.721Z,10.15
2018-11-02T01:43:30.057Z,10.13
2018-11-02T01:45:58.111Z,10.06
2018-11-02T01:48:26.097Z,10.14
2018-11-02T01:50:54.929Z,10.03
2018-11-02T01:53:22.915Z,9.89
2018-11-02T01:55:51.168Z,9.96
2018-11-02T01:58:19.412Z,10.00
2018-11-02T02:00:47.503Z,10.04
2018-11-02T02:03:15.544Z,9.96
2018-11-02T02:05:43.685Z,9.76
2018-11-02T02:08:11.652Z,9.74
2018-11-02T02:10:39.653Z,9.66
2018-11-02T02:13:07.697Z,9.73
2018-11-02T02:15:35.723Z,9.85
2018-11-02T02:18:03.773Z,9.77
2018-11-02T02:20:31.779Z,9.89
2018-11-02T02:22:59.786Z,9.85
2018-11-02T02:25:27.806Z,9.92
2018-11-02T02:27:55.794Z,10.07
2018-11-02T02:30:23.873Z,9.99
2018-11-02T02:32:52.024Z,10.14
2018-11-02T02:35:20.055Z,9.97
2018-11-02T02:37:48.082Z,9.96
2018-11-02T02:40:16.115Z,10.03
2018-11-02T02:42:44.114Z,9.95
2018-11-02T02:45:12.824Z,9.88
2018-11-02T02:47:41.189Z,9.97
2018-11-02T02:50:11.394Z,9.96
2018-11-02T02:52:39.438Z,9.96
2018-11-02T02:55:07.736Z,10.02
2018-11-02T02:57:42.418Z,9.94
2018-11-02T03:00:12.511Z,9.80
2018-11-02T03:02:40.661Z,9.86
2018-11-02T03:05:09.041Z,9.78
2018-11-02T03:07:37.066Z,9.52
2018-11-02T03:10:05.326Z,9.49
2018-11-02T03:12:33.300Z,9.46
2018-11-02T03:15:01.305Z,9.46
2018-11-02T03:17:29.375Z,9.53
2018-11-02T03:19:57.365Z,9.46
2018-11-02T03:22:25.386Z,9.49
2018-11-02T03:24:53.394Z,9.52
2018-11-02T03:27:21.567Z,9.59
2018-11-02T03:29:49.589Z,9.50
2018-11-02T03:32:17.637Z,9.59
2018-11-02T03:34:45.653Z,9.49
2018-11-02T03:37:13.697Z,9.38
2018-11-02T03:39:41.778Z,9.43
2018-11-02T03:42:09.801Z,9.27
2018-11-02T03:44:37.797Z,9.34
2018-11-02T03:47:05.900Z,9.41
2018-11-02T03:49:33.913Z,9.45
2018-11-02T03:52:01.959Z,9.47
2018-11-02T03:54:29.984Z,9.65
2018-11-02T03:56:58.157Z,9.54
2018-11-02T03:59:26.035Z,9.61
2018-11-02T04:01:54.106Z,9.44
2018-11-02T04:04:22.109Z,9.59
2018-11-02T04:06:50.108Z,9.53
2018-11-02T04:09:18.251Z,9.53
2018-11-02T04:11:46.289Z,9.52
2018-11-02T04:14:14.345Z,9.49
2018-11-02T04:16:42.390Z,9.56
2018-11-02T04:19:10.449Z,9.52
2018-11-02T04:21:41.879Z,9.51
2018-11-02T04:24:09.931Z,9.43
2018-11-02T04:26:37.995Z,9.46
2018-11-02T04:29:06.165Z,9.40
2018-11-02T04:31:34.285Z,9.51
2018-11-02T04:34:02.422Z,9.58
2018-11-02T04:36:30.494Z,9.62
2018-11-02T04:38:58.514Z,9.74
2018-11-02T04:41:26.607Z,9.69
2018-11-02T04:43:54.649Z,9.81
2018-11-02T04:46:22.610Z,9.87
2018-11-02T04:48:50.595Z,9.79
2018-11-02T04:51:18.665Z,9.89
2018-11-02T04:53:46.682Z,9.91
2018-11-02T04:56:14.745Z,9.86
2018-11-02T04:58:42.773Z,9.99
2018-11-02T05:01:10.842Z,10.10
2018-11-02T05:03:38.881Z,10.01
2018-11-02T05:06:06.891Z,10.07
2018-11-02T05:08:34.921Z,10.04
2018-11-02T05:11:02.936Z,10.05
2018-11-02T05:13:30.957Z,10.08
2018-11-02T05:15:58.996Z,10.14
2018-11-02T05:18:27.080Z,10.22
2018-11-02T05:20:55.100Z,10.21
2018-11-02T05:23:23.205Z,10.25
2018-11-02T05:25:51.243Z,10.22
2018-11-02T05:28:19.245Z,10.26
2018-11-02T05:30:47.243Z,10.29
2018-11-02T05:33:15.312Z,10.16
2018-11-02T05:35:43.310Z,10.22
2018-11-02T05:38:11.321Z,10.31
2018-11-02T05:40:39.324Z,10.56
2018-11-02T05:43:07.402Z,10.47
2018-11-02T05:45:35.430Z,10.56
2018-11-02T05:48:03.396Z,10.44
2018-11-02T05:50:31.445Z,10.55
2018-11-02T05:52:59.664Z,10.60
2018-11-02T05:55:27.626Z,10.53
2018-11-02T05:57:55.732Z,10.43
2018-11-02T06:00:23.760Z,10.41
2018-11-02T06:02:51.756Z,10.45
2018-11-02T06:05:19.804Z,10.53
2018-11-02T06:07:47.937Z,10.69
2018-11-02T06:10:15.929Z,10.63
2018-11-02T06:12:43.978Z,10.68
2018-11-02T06:15:11.961Z,10.68
2018-11-02T06:17:39.941Z,10.64
2018-11-02T06:20:08.461Z,10.65
2018-11-02T06:22:36.454Z,10.72
2018-11-02T06:25:04.735Z,10.72
2018-11-02T06:27:32.789Z,10.75
2018-11-02T06:30:00.803Z,10.74
2018-11-02T06:32:28.917Z,10.89
2018-11-02T06:34:56.851Z,10.83
2018-11-02T06:37:25.045Z,10.79
2018-11-02T06:39:53.256Z,10.79
2018-11-02T06:42:21.248Z,10.93
2018-11-02T06:44:49.361Z,10.99
2018-11-02T06:47:17.305Z,10.95
2018-11-02T06:49:45.273Z,11.06
2018-11-02T06:52:13.275Z,11.01
2018-11-02T06:54:41.240Z,10.83
2018-11-02T06:57:09.264Z,10.94
2018-11-02T06:59:37.531Z,11.11
2018-11-02T07:02:05.541Z,11.20
2018-11-02T07:04:33.573Z,11.20
2018-11-02T07:07:01.647Z,11.12
2018-11-02T07:09:29.611Z,11.09
2018-11-02T07:11:57.701Z,11.10
2018-11-02T07:14:25.750Z,11.15
2018-11-02T07:16:53.741Z,11.14
2018-11-02T07:19:21.738Z,11.35
2018-11-02T07:21:49.862Z,11.30
2018-11-02T07:24:17.844Z,11.35
2018-11-02T07:26:45.905Z,11.32
2018-11-02T07:29:13.885Z,11.27
2018-11-02T07:31:41.895Z,11.29
2018-11-02T07:34:09.935Z,11.23
2018-11-02T07:36:37.869Z,11.28
2018-11-02T07:39:08.246Z,11.38
2018-11-02T07:41:36.294Z,11.36
2018-11-02T07:44:04.424Z,11.48
2018-11-02T07:46:32.434Z,11.56
2018-11-02T07:49:00.446Z,11.64
2018-11-02T07:51:28.461Z,11.56
2018-11-02T07:53:56.965Z,11.46
2018-11-02T07:56:25.113Z,11.43
2018-11-02T07:58:53.137Z,11.46
2018-11-02T08:01:21.173Z,11.60
2018-11-02T08:03:49.198Z,11.72
2018-11-02T08:06:17.165Z,11.77
2018-11-02T08:08:45.180Z,11.94
2018-11-02T08:11:13.238Z,11.95
2018-11-02T08:13:41.196Z,12.18
2018-11-02T08:16:09.183Z,12.07
2018-11-02T08:18:37.189Z,12.10
2018-11-02T08:21:05.216Z,12.16
2018-11-02T08:23:33.233Z,12.06
2018-11-02T08:26:01.232Z,12.08
2018-11-02T08:28:29.273Z,12.24
2018-11-02T08:30:57.282Z,12.26
2018-11-02T08:33:25.294Z,12.30
2018-11-02T08:35:53.304Z,12.21
2018-11-02T08:38:21.424Z,12.25
2018-11-02T08:40:49.424Z,12.13
2018-11-02T08:43:17.427Z,12.04
2018-11-02T08:45:45.444Z,12.10
2018-11-02T08:48:13.465Z,12.13
2018-11-02T08:50:41.485Z,12.20
2018-11-02T08:53:09.511Z,12.23
2018-11-02T08:55:37.501Z,12.12
2018-11-02T08:58:05.643Z,12.13
2018-11-02T09:00:33.541Z,12.01
2018-11-02T09:03:01.541Z,11.81
2018-11-02T09:05:29.573Z,12.11
2018-11-02T09:07:57.573Z,12.15
2018-11-02T09:10:25.604Z,12.25
2018-11-02T09:12:53.592Z,12.47
2018-11-02T09:15:21.580Z,12.29
2018-11-02T09:17:49.593Z,12.47
2018-11-02T09:20:17.614Z,12.74
2018-11-02T09:22:45.644Z,12.92
2018-11-02T09:25:13.605Z,12.86
2018-11-02T09:27:41.647Z,12.69
2018-11-02T09:30:12.721Z,12.82
2018-11-02T09:32:40.725Z,12.58
2018-11-02T09:35:08.761Z,12.95
2018-11-02T09:37:37.765Z,13.14
2018-11-02T09:40:06.835Z,13.38
2018-11-02T09:42:34.901Z,13.33
2018-11-02T09:45:02.908Z,13.53
2018-11-02T09:47:30.947Z,13.49
2018-11-02T09:49:58.981Z,13.57
2018-11-02T09:52:27.126Z,13.75
2018-11-02T09:54:55.225Z,13.81
2018-11-02T09:57:23.232Z,13.82
2018-11-02T09:59:51.337Z,13.60
2018-11-02T10:02:19.354Z,13.63
2018-11-02T10:04:47.368Z,13.66
2018-11-02T10:07:15.375Z,13.76
2018-11-02T10:09:43.383Z,13.44
2018-11-02T10:12:11.417Z,13.35
2018-11-02T10:14:39.438Z,13.45
2018-11-02T10:17:07.476Z,13.63
2018-11-02T10:19:35.511Z,13.63
2018-11-02T10:22:03.503Z,13.57
2018-11-02T10:24:31.805Z,13.91
2018-11-02T10:26:59.810Z,14.05
2018-11-02T10:29:28.183Z,14.09
2018-11-02T10:31:56.193Z,14.08
2018-11-02T10:34:24.188Z,14.02
2018-11-02T10:36:52.190Z,13.73
2018-11-02T10:39:20.375Z,13.39
2018-11-02T10:41:50.261Z,13.46
2018-11-02T10:44:21.354Z,13.41
2018-11-02T10:46:49.349Z,13.49
2018-11-02T10:49:17.409Z,13.56
2018-11-02T10:51:45.441Z,13.64
2018-11-02T10:54:13.443Z,13.71
2018-11-02T10:56:41.530Z,13.37
2018-11-02T10:59:09.513Z,13.47
2018-11-02T11:01:43.028Z,13.39
2018-11-02T11:04:11.072Z,13.50
2018-11-02T11:06:39.153Z,13.48
2018-11-02T11:09:09.964Z,13.79
2018-11-02T11:11:38.098Z,13.80
2018-11-02T11:14:06.068Z,13.77
2018-11-02T11:16:34.097Z,13.58
2018-11-02T11:19:02.097Z,13.64
2018-11-02T11:21:30.225Z,13.56
2018-11-02T11:23:58.225Z,13.24
2018-11-02T11:26:26.305Z,13.23
2018-11-02T11:28:54.345Z,13.37
2018-11-02T11:31:22.413Z,13.18
2018-11-02T11:33:50.420Z,13.18
2018-11-02T11:36:18.432Z,13.35
2018-11-02T11:38:46.425Z,13.30
2018-11-02T11:41:14.429Z,13.42
2018-11-02T11:43:42.497Z,13.39
2018-11-02T11:46:10.533Z,13.22
2018-11-02T11:48:38.583Z,13.22
2018-11-02T11:51:06.692Z,13.37
2018-11-02T11:53:34.744Z,13.38
2018-11-02T11:56:02.730Z,13.32
2018-11-02T11:58:30.718Z,13.36
2018-11-02T12:00:58.696Z,13.43
2018-11-02T12:03:26.758Z,13.08
2018-11-02T12:05:54.753Z,13.06
2018-11-02T12:08:22.746Z,13.22
2018-11-02T12:10:50.825Z,12.99
2018-11-02T12:13:18.841Z,12.97
2018-11-02T12:15:46.869Z,13.08
2018-11-02T12:18:14.845Z,13.04
2018-11-02T12:20:42.873Z,12.95
2018-11-02T12:23:10.941Z,12.92
2018-11-02T12:25:38.936Z,13.06
2018-11-02T12:28:06.984Z,13.27
2018-11-02T12:30:34.953Z,13.53
2018-11-02T12:33:02.983Z,13.62
2018-11-02T12:35:31.012Z,13.60
2018-11-02T12:37:59.053Z,13.73
2018-11-02T12:40:27.074Z,13.66
2018-11-02T12:42:55.876Z,13.55
2018-11-02T12:45:24.165Z,13.62
2018-11-02T12:47:52.223Z,13.65
2018-11-02T12:50:25.646Z,13.70
2018-11-02T12:52:54.841Z,13.90
2018-11-02T12:55:23.212Z,13.93
2018-11-02T12:57:51.293Z,13.70
2018-11-02T13:00:21.476Z,13.69
2018-11-02T13:02:50.264Z,13.98
2018-11-02T13:05:18.326Z,13.95
2018-11-02T13:07:46.328Z,13.85
2018-11-02T13:10:16.353Z,13.64
2018-11-02T13:12:44.401Z,13.80
2018-11-02T13:15:13.742Z,13.99
2018-11-02T13:17:42.660Z,14.03
2018-11-02T13:20:11.233Z,14.21
2018-11-02T13:22:39.972Z,13.89
2018-11-02T13:25:09.472Z,14.04
2018-11-02T13:27:37.514Z,14.00
2018-11-02T13:30:06.019Z,13.99
2018-11-02T13:32:34.202Z,13.96
2018-11-02T13:35:02.254Z,13.94
2018-11-02T13:37:30.258Z,14.01
2018-11-02T13:39:58.332Z,13.81
2018-11-02T13:42:26.391Z,14.14
2018-11-02T13:44:54.470Z,14.35
2018-11-02T13:47:22.845Z,14.36
2018-11-02T13:49:51.221Z,14.23
2018-11-02T13:52:19.216Z,14.21
2018-11-02T13:54:47.270Z,14.27
2018-11-02T13:57:15.315Z,14.14
2018-11-02T13:59:43.343Z,13.84
2018-11-02T14:02:11.344Z,13.82
2018-11-02T14:04:39.541Z,13.86
2018-11-02T14:07:07.545Z,14.02
2018-11-02T14:09:35.549Z,13.80
2018-11-02T14:12:03.565Z,13.88
2018-11-02T14:14:31.586Z,14.02
2018-11-02T14:16:59.593Z,13.91
2018-11-02T14:19:27.649Z,13.88
2018-11-02T14:21:55.658Z,13.93
2018-11-02T14:24:23.719Z,13.98
2018-11-02T14:26:51.736Z,14.02
2018-11-02T14:29:19.846Z,13.91
2018-11-02T14:31:47.802Z,13.78
2018-11-02T14:34:15.956Z,13.84
2018-11-02T14:36:44.189Z,14.00
2018-11-02T14:39:13.934Z,14.01
2018-11-02T14:41:42.805Z,13.92
2018-11-02T14:44:11.025Z,13.91
2018-11-02T14:46:39.678Z,13.87
2018-11-02T14:49:07.653Z,13.65
2018-11-02T14:51:35.983Z,13.58
2018-11-02T14:56:43.522Z,13.66
2018-11-02T14:59:11.519Z,13.62
2018-11-02T15:01:39.544Z,13.66
2018-11-02T15:04:07.641Z,13.51
2018-11-02T15:06:35.643Z,13.58
2018-11-02T15:09:04.682Z,13.58
2018-11-02T15:11:32.806Z,13.40
2018-11-02T15:14:00.786Z,13.45
2018-11-02T15:16:28.836Z,13.46
2018-11-02T15:18:56.849Z,13.57
2018-11-02T15:21:24.871Z,13.55
2018-11-02T15:23:53.074Z,13.44
2018-11-02T15:26:21.144Z,13.35
2018-11-02T15:28:49.111Z,13.33
2018-11-02T15:31:17.149Z,13.26
2018-11-02T15:33:45.136Z,13.38
2018-11-02T15:36:13.124Z,13.37
2018-11-02T15:38:41.147Z,13.49
2018-11-02T15:41:09.157Z,13.54
2018-11-02T15:43:37.150Z,13.29
2018-11-02T15:46:05.309Z,13.29
2018-11-02T15:48:33.318Z,13.23
2018-11-02T15:51:01.368Z,13.09
2018-11-02T15:53:29.487Z,13.11
2018-11-02T15:55:57.441Z,13.25
2018-11-02T15:58:25.464Z,13.21
2018-11-02T16:00:53.446Z,13.17
2018-11-02T16:03:21.665Z,12.99
2018-11-02T16:05:49.693Z,12.86
2018-11-02T16:08:17.713Z,12.77
2018-11-02T16:10:45.905Z,12.74
2018-11-02T16:13:13.941Z,12.81
2018-11-02T16:15:41.925Z,12.84
2018-11-02T16:18:09.984Z,12.86
2018-11-02T16:20:38.045Z,12.82
2018-11-02T16:23:06.270Z,12.88
2018-11-02T16:25:34.285Z,12.83
2018-11-02T16:28:02.296Z,12.79
2018-11-02T16:30:30.321Z,12.68
2018-11-02T16:32:58.309Z,12.64
2018-11-02T16:35:26.389Z,12.53
2018-11-02T16:37:54.457Z,12.55
2018-11-02T16:40:22.460Z,12.52
2018-11-02T16:42:50.573Z,12.48
2018-11-02T16:45:18.568Z,12.43
2018-11-02T16:47:46.732Z,12.35
2018-11-02T16:50:15.427Z,12.25
2018-11-02T16:52:43.818Z,12.24
2018-11-02T16:55:11.991Z,12.22
2018-11-02T16:57:40.442Z,12.28
2018-11-02T17:00:14.880Z,12.11
2018-11-02T17:02:43.465Z,12.04
2018-11-02T17:05:11.457Z,12.02
2018-11-02T17:07:39.977Z,11.90
2018-11-02T17:10:09.017Z,12.06
2018-11-02T17:12:37.216Z,12.05
2018-11-02T17:15:05.520Z,12.03
2018-11-02T17:17:33.475Z,12.02
2018-11-02T17:20:01.481Z,11.96
2018-11-02T17:22:29.471Z,11.97
2018-11-02T17:24:57.479Z,11.94
2018-11-02T17:27:25.485Z,12.00
2018-11-02T17:29:53.585Z,11.97
2018-11-02T17:32:21.973Z,11.87
2018-11-02T17:34:49.952Z,11.75
2018-11-02T17:37:17.978Z,11.60
2018-11-02T17:39:46.077Z,11.49
2018-11-02T17:42:14.053Z,11.42
2018-11-02T17:44:42.088Z,11.42
2018-11-02T17:47:10.209Z,11.39
2018-11-02T17:49:38.235Z,11.33
2018-11-02T17:52:06.249Z,11.32
2018-11-02T17:54:34.240Z,11.21
2018-11-02T17:57:02.216Z,11.14
2018-11-02T17:59:30.273Z,10.98
2018-11-02T18:01:58.300Z,10.92
2018-11-02T18:04:26.309Z,10.88
2018-11-02T18:06:54.289Z,10.66
2018-11-02T18:09:22.289Z,10.60
2018-11-02T18:11:50.393Z,10.68
2018-11-02T18:14:18.346Z,10.68
2018-11-02T18:16:46.418Z,10.61
2018-11-02T18:19:14.413Z,10.45
2018-11-02T18:21:42.396Z,10.39
2018-11-02T18:24:10.458Z,10.42
2018-11-02T18:26:38.417Z,10.35
2018-11-02T18:29:06.479Z,10.19
2018-11-02T18:31:34.510Z,10.16
2018-11-02T18:34:02.558Z,9.85
2018-11-02T18:36:30.557Z,9.83
2018-11-02T18:38:58.540Z,9.77
2018-11-02T18:41:26.566Z,9.79
2018-11-02T18:43:54.658Z,9.71
2018-11-02T18:46:22.684Z,9.54
2018-11-02T18:48:50.669Z,9.53
2018-11-02T18:51:18.656Z,9.58
2018-11-02T18:53:46.677Z,9.66
2018-11-02T18:56:14.697Z,9.57
2018-11-02T18:58:42.724Z,9.67
2018-11-02T19:01:10.775Z,9.54
2018-11-02T19:03:38.829Z,9.57
2018-11-02T19:06:06.988Z,9.48
2018-11-02T19:08:34.993Z,9.40
2018-11-02T19:11:03.064Z,9.40
2018-11-02T19:13:31.131Z,9.34
2018-11-02T19:15:59.053Z,9.36
2018-11-02T19:18:27.152Z,9.35
2018-11-02T19:20:55.163Z,9.31
2018-11-02T19:23:23.244Z,9.26
2018-11-02T19:25:51.318Z,9.41
2018-11-02T19:28:19.321Z,9.40
2018-11-02T19:30:47.392Z,9.32
2018-11-02T19:33:15.418Z,9.29
2018-11-02T19:35:43.445Z,9.20
2018-11-02T19:38:11.650Z,9.15
2018-11-02T19:40:39.449Z,9.13
2018-11-02T19:43:07.509Z,9.15
2018-11-02T19:45:35.578Z,9.18
2018-11-02T19:48:04.505Z,9.22
2018-11-02T19:50:32.853Z,9.19
2018-11-02T19:53:00.801Z,9.19
2018-11-02T19:55:28.815Z,9.03
2018-11-02T19:57:56.828Z,8.97
2018-11-02T20:00:24.827Z,8.92
2018-11-02T20:02:52.954Z,8.93
2018-11-02T20:05:21.380Z,8.86
2018-11-02T20:07:49.408Z,8.60
2018-11-02T20:10:18.093Z,8.53
2018-11-02T20:12:46.502Z,8.50
2018-11-02T20:15:15.174Z,8.24
2018-11-02T20:17:43.302Z,8.30
2018-11-02T20:20:12.810Z,8.41
2018-11-02T20:22:40.884Z,8.48
2018-11-02T20:25:10.879Z,8.49
2018-11-02T20:27:38.932Z,8.51
2018-11-02T20:30:08.781Z,8.55
2018-11-02T20:32:36.851Z,8.55
2018-11-02T20:35:05.026Z,8.48
2018-11-02T20:37:33.058Z,8.51
2018-11-02T20:40:01.112Z,8.57
2018-11-02T20:42:29.201Z,8.64
2018-11-02T20:44:57.265Z,8.72
2018-11-02T20:47:25.405Z,8.73
2018-11-02T20:49:53.557Z,8.69
2018-11-02T20:52:21.553Z,8.76
2018-11-02T20:54:49.592Z,8.64
2018-11-02T20:57:17.651Z,8.62
2018-11-02T20:59:45.658Z,8.69
2018-11-02T21:02:13.762Z,8.68
2018-11-02T21:04:41.923Z,8.72
2018-11-02T21:07:09.945Z,8.69
2018-11-02T21:09:38.258Z,8.67
2018-11-02T21:12:06.010Z,8.62
2018-11-02T21:14:34.235Z,8.58
2018-11-02T21:17:02.103Z,8.55
2018-11-02T21:19:30.069Z,8.40
2018-11-02T21:21:58.148Z,8.50
2018-11-02T21:24:26.172Z,8.43
2018-11-02T21:26:54.246Z,8.38
2018-11-02T21:29:22.273Z,8.12
2018-11-02T21:31:50.317Z,8.04
2018-11-02T21:34:18.349Z,8.07
2018-11-02T21:36:46.405Z,8.27
2018-11-02T21:39:14.492Z,8.29
2018-11-02T21:41:42.491Z,8.30
2018-11-02T21:44:11.013Z,8.29
2018-11-02T21:46:39.148Z,8.34
2018-11-02T21:49:07.190Z,8.16
2018-11-02T21:51:35.194Z,8.19
2018-11-02T21:54:03.211Z,8.24
2018-11-02T21:56:31.272Z,8.26
2018-11-02T21:59:00.243Z,8.23
2018-11-02T22:01:28.261Z,8.21
2018-11-02T22:03:56.472Z,8.18
2018-11-02T22:06:24.513Z,8.12
2018-11-02T22:08:52.609Z,8.09
2018-11-02T22:11:20.689Z,8.07
2018-11-02T22:13:48.859Z,8.03
2018-11-02T22:16:17.025Z,7.93
2018-11-02T22:18:45.283Z,8.01
2018-11-02T22:21:13.179Z,7.99
2018-11-02T22:23:41.236Z,7.96
2018-11-02T22:26:09.300Z,7.81
2018-11-02T22:28:37.306Z,7.77
2018-11-02T22:31:05.354Z,7.80
2018-11-02T22:33:33.372Z,7.82
2018-11-02T22:36:01.443Z,7.81
2018-11-02T22:38:29.440Z,7.68
2018-11-02T22:40:57.481Z,7.73
2018-11-02T22:43:25.649Z,7.62
2018-11-02T22:45:54.245Z,7.62
2018-11-02T22:48:23.560Z,7.58
2018-11-02T22:50:51.871Z,7.50
2018-11-02T22:53:19.852Z,7.36
2018-11-02T22:55:48.613Z,7.35
2018-11-02T22:58:18.385Z,7.22
2018-11-02T23:00:52.453Z,7.24
2018-11-02T23:03:20.501Z,7.26
2018-11-02T23:05:48.515Z,7.10
2018-11-02T23:08:16.830Z,7.20
2018-11-02T23:10:44.855Z,7.26
2018-11-02T23:13:13.936Z,7.24
2018-11-02T23:15:41.964Z,7.28
2018-11-02T23:18:10.036Z,7.23
2018-11-02T23:20:38.045Z,7.21
2018-11-02T23:23:06.191Z,7.17
2018-11-02T23:25:34.189Z,7.02
2018-11-02T23:28:02.164Z,7.07
2018-11-02T23:30:30.250Z,7.15
2018-11-02T23:32:58.244Z,7.03
2018-11-02T23:35:26.356Z,6.92
2018-11-02T23:37:54.440Z,6.97
2018-11-02T23:40:22.465Z,6.77
2018-11-02T23:42:50.510Z,6.64
2018-11-02T23:45:18.573Z,6.45
2018-11-02T23:47:52.004Z,6.25
2018-11-02T23:50:20.013Z,6.16
2018-11-02T23:52:48.051Z,6.20
2018-11-02T23:55:16.251Z,6.20
2018-11-02T23:57:44.326Z,6.08
